This is the latest recevied weather packets stored in our database for station/object GW4003. If no packets are shown the sender has not sent any weather packets the latest 10 day(s).
| Time | Temp. | Humidity | Pressure | Rain* | Wind** | Luminosity | Snow |
|---|---|---|---|---|---|---|---|
| 1777926401 | 19.44° C | 26% | 1009.7 hPa | 0 mm | - | - | - |
| 1777926098 | 19.44° C | 25% | 1009.7 hPa | 0 mm | - | - | - |
| 1777925795 | 18.89° C | 25% | 1009.8 hPa | 0 mm | - | - | - |
| 1777925492 | 18.89° C | 26% | 1009.8 hPa | 0 mm | - | - | - |
| 1777925188 | 18.33° C | 27% | 1010.1 hPa | 0 mm | - | - | - |
| 1777924885 | 18.33° C | 28% | 1010.2 hPa | 0 mm | - | - | - |
| 1777924582 | 18.33° C | 28% | 1010.2 hPa | 0 mm | - | - | - |
| 1777924280 | 18.89° C | 30% | 1010 hPa | 0 mm | - | - | - |
| 1777923977 | 18.89° C | 26% | 1010 hPa | 0 mm | - | - | - |
| 1777923674 | 18.89° C | 24% | 1009.9 hPa | 0 mm | - | - | - |
| 1777923372 | 18.89° C | 25% | 1009.7 hPa | 0 mm | - | - | - |
| 1777923069 | 19.44° C | 23% | 1010 hPa | 0 mm | - | - | - |
| 1777922766 | 19.44° C | 23% | 1010.2 hPa | 0 mm | - | - | - |
| 1777922463 | 19.44° C | 22% | 1010 hPa | 0 mm | - | - | - |
| 1777922159 | 20° C | 23% | 1009.8 hPa | 0 mm | - | - | - |
| 1777921856 | 20.56° C | 21% | 1009.3 hPa | 0 mm | - | - | - |
| 1777921553 | 21.11° C | 20% | 1009 hPa | 0 mm | - | - | - |
| 1777921250 | 21.11° C | 21% | 1009.1 hPa | 0 mm | - | - | - |
| 1777920947 | 21.67° C | 20% | 1009.1 hPa | 0 mm | - | - | - |
| 1777920643 | 22.22° C | 19% | 1008.8 hPa | 0 mm | - | - | - |
| 1777920340 | 22.22° C | 20% | 1008.9 hPa | 0 mm | - | - | - |
| 1777920037 | 22.22° C | 19% | 1008.9 hPa | 0 mm | - | - | - |
| 1777919733 | 22.78° C | 20% | 1008.9 hPa | 0 mm | - | - | - |
| 1777919430 | 22.22° C | 20% | 1009 hPa | 0 mm | - | - | - |
| 1777919127 | 22.22° C | 21% | 1009 hPa | 0 mm | - | - | - |
* Rain latest hour (hover to see other rain measurements)
** Current wind speed in m/s (hover to see current wind gust speed)